Time;durP1;ratioP1;P1;durP2;ratioP2;P2;SDS_P1;SDS_P2;PMS_P1;PMS_P2;Temp;Humidity;BMP_temperature;BMP_pressure;BME280_temperature;BME280_humidity;BME280_pressure;Samples;Min_cycle;Max_cycle;Signal;HPM_P1;HPM_P2
2023/08/12 00:00:57;;;;;;;4.90;3.15;;;;;;;;;;5068666;28;20044;-73
2023/08/12 00:03:24;;;;;;;5.70;2.40;;;;;;;;;;5068943;28;20071;-73
2023/08/12 00:05:52;;;;;;;5.63;2.17;;;;;;;;;;5069176;28;20040;-73
2023/08/12 00:08:19;;;;;;;4.85;2.05;;;;;;;;;;5069134;28;20119;-73
2023/08/12 00:10:45;;;;;;;3.83;2.03;;;;;;;;;;5072798;28;20052;-73
2023/08/12 00:13:14;;;;;;;7.57;2.40;;;;;;;;;;5072388;28;20052;-73
2023/08/12 00:15:40;;;;;;;5.15;2.08;;;;;;;;;;5072422;28;20048;-73
2023/08/12 00:18:10;;;;;;;4.72;2.25;;;;;;;;;;5072707;28;20040;-73
2023/08/12 00:20:40;;;;;;;5.93;2.30;;;;;;;;;;5072050;28;20060;-73
2023/08/12 00:23:06;;;;;;;6.88;2.15;;;;;;;;;;5072446;28;20287;-73
2023/08/12 00:25:33;;;;;;;6.50;2.22;;;;;;;;;;5072560;28;20041;-73
2023/08/12 00:28:00;;;;;;;6.95;2.10;;;;;;;;;;5072274;28;20044;-73
2023/08/12 00:30:27;;;;;;;4.78;1.92;;;;;;;;;;5072206;28;20570;-73
2023/08/12 00:32:53;;;;;;;4.07;2.10;;;;;;;;;;5095386;28;20078;-73
2023/08/12 00:35:20;;;;;;;4.25;2.03;;;;;;;;;;5112841;28;20051;-73
2023/08/12 00:37:47;;;;;;;4.50;2.22;;;;;;;;;;5111384;28;20132;-73
2023/08/12 00:40:13;;;;;;;5.18;2.10;;;;;;;;;;5112874;28;20051;-73
2023/08/12 00:42:40;;;;;;;4.53;2.50;;;;;;;;;;5112669;28;20415;-72
2023/08/12 00:45:12;;;;;;;3.90;2.08;;;;;;;;;;5112126;28;20431;-73
2023/08/12 00:47:40;;;;;;;4.35;2.42;;;;;;;;;;5112953;28;20048;-73
2023/08/12 00:50:13;;;;;;;5.18;2.20;;;;;;;;;;5112238;28;20047;-73
2023/08/12 00:52:40;;;;;;;5.07;2.13;;;;;;;;;;5112001;28;20052;-74
2023/08/12 00:55:07;;;;;;;5.63;2.22;;;;;;;;;;5112126;28;20044;-72
2023/08/12 00:57:34;;;;;;;4.50;2.00;;;;;;;;;;5112759;28;20050;-73
2023/08/12 01:00:03;;;;;;;4.00;1.77;;;;;;;;;;5112324;28;20697;-73
2023/08/12 01:02:30;;;;;;;4.13;2.00;;;;;;;;;;5111118;28;20079;-73
2023/08/12 01:04:58;;;;;;;3.45;2.20;;;;;;;;;;5112158;28;20100;-73
2023/08/12 01:07:25;;;;;;;4.07;2.03;;;;;;;;;;5111794;28;20050;-73
2023/08/12 01:09:52;;;;;;;6.32;2.30;;;;;;;;;;5112396;28;20044;-73
2023/08/12 01:12:28;;;;;;;7.50;2.35;;;;;;;;;;5111846;28;20044;-73
2023/08/12 01:15:16;;;;;;;6.28;2.20;;;;;;;;;;5111990;28;20043;-73
2023/08/12 01:17:44;;;;;;;5.68;2.13;;;;;;;;;;5111845;28;20048;-73
2023/08/12 01:20:14;;;;;;;3.33;2.03;;;;;;;;;;5111283;28;20085;-74
2023/08/12 01:22:44;;;;;;;5.32;1.85;;;;;;;;;;5111493;28;20044;-73
2023/08/12 01:25:14;;;;;;;4.97;2.30;;;;;;;;;;5111810;28;20040;-73
2023/08/12 01:27:40;;;;;;;4.57;2.43;;;;;;;;;;5111947;28;20043;-73
2023/08/12 01:30:10;;;;;;;5.40;1.98;;;;;;;;;;5111893;28;20044;-73
2023/08/12 01:33:15;;;;;;;2.25;1.55;;;;;;;;;;5111346;28;20083;-73
2023/08/12 01:35:49;;;;;;;5.55;2.20;;;;;;;;;;5111810;28;20048;-72
2023/08/12 01:38:18;;;;;;;4.82;2.17;;;;;;;;;;5111746;28;20055;-73
2023/08/12 01:40:46;;;;;;;4.78;2.25;;;;;;;;;;5111439;28;20051;-73
2023/08/12 01:43:13;;;;;;;6.38;1.80;;;;;;;;;;5111554;28;20097;-73
2023/08/12 01:45:41;;;;;;;3.58;2.08;;;;;;;;;;5111451;28;20051;-73
2023/08/12 01:48:11;;;;;;;5.15;2.08;;;;;;;;;;5111557;28;20275;-73
2023/08/12 01:50:39;;;;;;;4.38;2.13;;;;;;;;;;5111200;28;20195;-73
2023/08/12 01:53:06;;;;;;;4.38;2.30;;;;;;;;;;5110849;28;20058;-73
2023/08/12 01:55:32;;;;;;;4.35;2.10;;;;;;;;;;5111474;28;20051;-73
2023/08/12 01:57:59;;;;;;;3.58;2.10;;;;;;;;;;5111388;28;20047;-73
2023/08/12 02:00:25;;;;;;;7.55;2.00;;;;;;;;;;5111337;28;20051;-73
2023/08/12 02:02:52;;;;;;;4.97;2.30;;;;;;;;;;5110907;28;20051;-73
2023/08/12 02:05:19;;;;;;;3.83;1.92;;;;;;;;;;5111066;28;20411;-73
2023/08/12 02:07:46;;;;;;;5.07;1.88;;;;;;;;;;5110531;28;20649;-73
2023/08/12 02:10:14;;;;;;;5.72;2.17;;;;;;;;;;5111237;28;20047;-73
2023/08/12 02:12:41;;;;;;;7.93;1.92;;;;;;;;;;5110895;28;20066;-73
2023/08/12 02:15:08;;;;;;;3.85;2.10;;;;;;;;;;5111158;28;20051;-73
2023/08/12 02:17:34;;;;;;;6.40;2.10;;;;;;;;;;5111005;28;20043;-73
2023/08/12 02:20:01;;;;;;;5.45;2.00;;;;;;;;;;5110996;28;20044;-73
2023/08/12 02:22:29;;;;;;;5.47;2.53;;;;;;;;;;5110028;28;20526;-73
2023/08/12 02:24:55;;;;;;;3.15;1.80;;;;;;;;;;5110868;28;20043;-73
2023/08/12 02:27:22;;;;;;;4.88;2.17;;;;;;;;;;5110860;28;20043;-73
2023/08/12 02:29:49;;;;;;;5.65;2.47;;;;;;;;;;5111057;28;20047;-73
2023/08/12 02:32:15;;;;;;;4.32;2.28;;;;;;;;;;5110254;28;20131;-73
2023/08/12 02:34:42;;;;;;;5.10;2.13;;;;;;;;;;5110739;28;20052;-73
2023/08/12 02:37:09;;;;;;;6.22;1.90;;;;;;;;;;5110050;28;20044;-73
2023/08/12 02:39:36;;;;;;;4.22;2.35;;;;;;;;;;5110274;28;20520;-73
2023/08/12 02:42:03;;;;;;;8.95;2.40;;;;;;;;;;5110097;28;20050;-73
2023/08/12 02:44:29;;;;;;;4.60;2.35;;;;;;;;;;5110419;28;20047;-73
2023/08/12 02:46:56;;;;;;;4.10;1.85;;;;;;;;;;5110063;28;20051;-73
2023/08/12 02:49:23;;;;;;;5.75;2.70;;;;;;;;;;5110540;28;20418;-73
2023/08/12 02:51:49;;;;;;;5.07;2.20;;;;;;;;;;5110036;28;20086;-73
2023/08/12 02:54:19;;;;;;;3.20;2.13;;;;;;;;;;5110110;28;20051;-73
2023/08/12 02:56:49;;;;;;;3.33;1.88;;;;;;;;;;5110113;28;20052;-73
2023/08/12 02:59:19;;;;;;;5.30;2.10;;;;;;;;;;5110384;28;20043;-73
2023/08/12 03:01:49;;;;;;;4.93;2.42;;;;;;;;;;5109847;28;20058;-73
2023/08/12 03:04:16;;;;;;;5.78;2.72;;;;;;;;;;5110062;28;20051;-73
2023/08/12 03:06:42;;;;;;;4.88;2.08;;;;;;;;;;5110256;28;20047;-73
2023/08/12 03:09:09;;;;;;;4.20;2.25;;;;;;;;;;5109898;28;20629;-73
2023/08/12 03:11:35;;;;;;;4.68;1.95;;;;;;;;;;5110132;28;20044;-73
2023/08/12 03:14:02;;;;;;;4.25;1.95;;;;;;;;;;5109759;28;20052;-73
2023/08/12 03:16:29;;;;;;;3.20;1.88;;;;;;;;;;5109857;28;20550;-73
2023/08/12 03:18:55;;;;;;;6.10;1.90;;;;;;;;;;5109821;28;20043;-73
2023/08/12 03:21:22;;;;;;;5.72;2.17;;;;;;;;;;5110213;28;20066;-73
2023/08/12 03:23:49;;;;;;;5.55;2.38;;;;;;;;;;5109492;28;20054;-73
2023/08/12 03:26:15;;;;;;;3.40;2.15;;;;;;;;;;5110313;28;20051;-73
2023/08/12 03:28:42;;;;;;;6.70;2.55;;;;;;;;;;5109867;28;20052;-72
2023/08/12 03:31:09;;;;;;;5.50;2.00;;;;;;;;;;5109796;28;20044;-73
2023/08/12 03:33:35;;;;;;;4.57;2.50;;;;;;;;;;5109049;28;20059;-73
2023/08/12 03:36:02;;;;;;;4.88;2.38;;;;;;;;;;5110053;28;20048;-73
2023/08/12 03:38:29;;;;;;;3.70;2.17;;;;;;;;;;5109708;28;20487;-73
2023/08/12 03:40:56;;;;;;;5.30;2.58;;;;;;;;;;5109935;28;20044;-73
2023/08/12 03:43:22;;;;;;;3.72;2.28;;;;;;;;;;5109754;28;20043;-73
2023/08/12 03:45:52;;;;;;;4.95;2.47;;;;;;;;;;5113621;28;20048;-72
2023/08/12 03:48:22;;;;;;;7.30;2.28;;;;;;;;;;5113440;28;20055;-73
2023/08/12 03:50:49;;;;;;;3.97;2.07;;;;;;;;;;5113963;28;20092;-73
2023/08/12 03:53:17;;;;;;;4.38;2.10;;;;;;;;;;5111931;28;20313;-72
2023/08/12 03:55:44;;;;;;;5.85;2.30;;;;;;;;;;5113569;28;20047;-73
2023/08/12 03:58:10;;;;;;;4.93;2.20;;;;;;;;;;5113233;28;20422;-73
2023/08/12 04:00:41;;;;;;;4.63;2.42;;;;;;;;;;5114204;28;20040;-73
2023/08/12 04:03:07;;;;;;;;;;;;;;;;;;5113537;28;20667;-73
2023/08/12 04:05:34;;;;;;;7.82;2.25;;;;;;;;;;5113474;28;20384;-73
2023/08/12 04:08:00;;;;;;;6.72;2.30;;;;;;;;;;5112760;28;20506;-73
2023/08/12 04:10:27;;;;;;;5.45;2.10;;;;;;;;;;5113519;28;20039;-73
2023/08/12 04:12:54;;;;;;;4.43;2.25;;;;;;;;;;5112702;28;20050;-73
2023/08/12 04:15:23;;;;;;;9.52;2.30;;;;;;;;;;5113526;28;20133;-73
2023/08/12 04:17:50;;;;;;;4.13;2.45;;;;;;;;;;5113371;28;20093;-73
2023/08/12 04:20:18;;;;;;;5.43;2.08;;;;;;;;;;5113861;28;20048;-73
2023/08/12 04:22:45;;;;;;;6.70;2.03;;;;;;;;;;5112864;28;20044;-73
2023/08/12 04:25:15;;;;;;;6.13;2.30;;;;;;;;;;5112750;28;20043;-73
2023/08/12 04:27:42;;;;;;;6.97;2.25;;;;;;;;;;5112562;28;20505;-73
2023/08/12 04:30:09;;;;;;;4.20;2.25;;;;;;;;;;5112939;28;20086;-73
2023/08/12 04:32:36;;;;;;;5.13;2.13;;;;;;;;;;5112660;28;20051;-73
2023/08/12 04:35:03;;;;;;;5.10;2.40;;;;;;;;;;5112828;28;20043;-72
2023/08/12 04:37:31;;;;;;;4.68;2.45;;;;;;;;;;5112689;28;20126;-73
2023/08/12 04:39:58;;;;;;;5.45;2.20;;;;;;;;;;5112796;28;20058;-73
2023/08/12 04:42:25;;;;;;;5.53;2.53;;;;;;;;;;5112505;28;20039;-73
2023/08/12 04:44:52;;;;;;;4.32;2.33;;;;;;;;;;5112083;28;20050;-73
2023/08/12 04:47:21;;;;;;;3.72;2.03;;;;;;;;;;5112632;28;20051;-73
2023/08/12 04:49:49;;;;;;;7.70;2.50;;;;;;;;;;5112297;28;20407;-73
2023/08/12 04:52:16;;;;;;;6.07;2.15;;;;;;;;;;5112860;28;20683;-73
2023/08/12 04:54:42;;;;;;;5.63;2.33;;;;;;;;;;5111926;28;20048;-73
2023/08/12 04:57:09;;;;;;;7.30;2.28;;;;;;;;;;5111826;28;20047;-72
2023/08/12 04:59:37;;;;;;;5.07;2.28;;;;;;;;;;5111987;28;20135;-73
2023/08/12 05:02:03;;;;;;;5.10;2.35;;;;;;;;;;5112337;28;20052;-73
2023/08/12 05:04:31;;;;;;;4.28;2.05;;;;;;;;;;5111947;28;20054;-73
2023/08/12 05:06:57;;;;;;;7.65;2.65;;;;;;;;;;5112199;28;20113;-73
2023/08/12 05:09:27;;;;;;;6.15;2.38;;;;;;;;;;5110926;28;20099;-73
2023/08/12 05:11:57;;;;;;;6.82;2.55;;;;;;;;;;5112144;28;20047;-73
2023/08/12 05:14:23;;;;;;;4.25;1.90;;;;;;;;;;5111905;28;20047;-73
2023/08/12 05:16:50;;;;;;;6.50;2.40;;;;;;;;;;5112115;28;20090;-73
2023/08/12 05:19:16;;;;;;;4.03;2.17;;;;;;;;;;5111723;28;20092;-73
2023/08/12 05:21:43;;;;;;;5.05;2.25;;;;;;;;;;5112010;28;20522;-73
2023/08/12 05:24:11;;;;;;;4.82;2.25;;;;;;;;;;5111561;28;20044;-73
2023/08/12 05:26:37;;;;;;;5.07;2.15;;;;;;;;;;5112138;28;20048;-73
2023/08/12 05:29:04;;;;;;;4.78;1.98;;;;;;;;;;5111441;28;20492;-73
2023/08/12 05:31:31;;;;;;;6.30;2.25;;;;;;;;;;5111918;28;20305;-73
2023/08/12 05:33:58;;;;;;;6.40;2.25;;;;;;;;;;5110996;28;20473;-73
2023/08/12 05:36:24;;;;;;;3.45;2.05;;;;;;;;;;5111490;28;20465;-73
2023/08/12 05:38:51;;;;;;;5.28;2.03;;;;;;;;;;5110933;28;20043;-73
2023/08/12 05:41:17;;;;;;;6.97;2.42;;;;;;;;;;5111796;28;20043;-73
2023/08/12 05:43:44;;;;;;;6.43;2.72;;;;;;;;;;5111132;28;20048;-73
2023/08/12 05:46:11;;;;;;;5.18;2.20;;;;;;;;;;5111301;28;20054;-73
2023/08/12 05:48:37;;;;;;;5.72;2.30;;;;;;;;;;5111285;28;20180;-73
2023/08/12 05:51:04;;;;;;;5.93;2.13;;;;;;;;;;5111202;28;20043;-73
2023/08/12 05:53:32;;;;;;;4.75;2.40;;;;;;;;;;5110829;28;20044;-73
2023/08/12 05:55:59;;;;;;;5.80;2.45;;;;;;;;;;5111023;28;20491;-72
2023/08/12 05:58:25;;;;;;;7.03;2.50;;;;;;;;;;5111281;28;20411;-73
2023/08/12 06:00:54;;;;;;;4.05;2.22;;;;;;;;;;5111301;28;20135;-73
2023/08/12 06:03:21;;;;;;;6.07;2.47;;;;;;;;;;5111011;28;20062;-73
2023/08/12 06:05:49;;;;;;;5.13;2.30;;;;;;;;;;5110971;28;20069;-73
2023/08/12 06:08:15;;;;;;;5.00;2.30;;;;;;;;;;5110543;28;20065;-73
2023/08/12 06:10:42;;;;;;;5.13;2.35;;;;;;;;;;5110706;28;20089;-73
2023/08/12 06:13:08;;;;;;;6.53;2.90;;;;;;;;;;5110761;28;20402;-73
2023/08/12 06:15:36;;;;;;;5.32;2.42;;;;;;;;;;5110171;28;20063;-73
2023/08/12 06:18:03;;;;;;;8.10;2.38;;;;;;;;;;5111074;28;20044;-73
2023/08/12 06:20:30;;;;;;;6.35;2.40;;;;;;;;;;5110609;28;20040;-73
2023/08/12 06:22:56;;;;;;;6.35;2.58;;;;;;;;;;5110588;28;20040;-73
2023/08/12 06:25:24;;;;;;;6.05;2.60;;;;;;;;;;5110555;28;20058;-73
2023/08/12 06:27:51;;;;;;;7.00;2.72;;;;;;;;;;5110964;28;20461;-73
2023/08/12 06:30:18;;;;;;;6.07;2.22;;;;;;;;;;5108858;28;20047;-73
2023/08/12 06:32:45;;;;;;;4.97;2.30;;;;;;;;;;5110176;28;20051;-73
2023/08/12 06:35:12;;;;;;;5.65;2.60;;;;;;;;;;5110197;28;20047;-72
2023/08/12 06:37:39;;;;;;;10.60;2.47;;;;;;;;;;5110434;28;20058;-73
2023/08/12 06:40:06;;;;;;;3.92;2.38;;;;;;;;;;5110164;28;20079;-73
2023/08/12 06:42:33;;;;;;;7.32;2.95;;;;;;;;;;5109183;28;20061;-73
2023/08/12 06:45:00;;;;;;;9.13;2.63;;;;;;;;;;5109842;28;20545;-73
2023/08/12 06:47:29;;;;;;;4.63;2.35;;;;;;;;;;5092112;28;20544;-73
2023/08/12 06:49:56;;;;;;;4.50;2.53;;;;;;;;;;5091667;28;20067;-73
2023/08/12 06:52:23;;;;;;;5.72;2.17;;;;;;;;;;5110340;28;20050;-73
2023/08/12 06:54:49;;;;;;;5.28;2.38;;;;;;;;;;5110053;28;20052;-73
2023/08/12 06:57:16;;;;;;;7.45;2.58;;;;;;;;;;5110546;28;20043;-73
2023/08/12 06:59:43;;;;;;;6.75;2.75;;;;;;;;;;5110354;28;20055;-73
2023/08/12 07:02:09;;;;;;;6.05;2.20;;;;;;;;;;5110117;28;20047;-73
2023/08/12 07:04:37;;;;;;;6.72;2.75;;;;;;;;;;5109694;28;20492;-73
2023/08/12 07:07:03;;;;;;;6.28;2.78;;;;;;;;;;5110450;28;20043;-73
2023/08/12 07:09:33;;;;;;;6.65;2.65;;;;;;;;;;5109766;28;20044;-73
2023/08/12 07:12:01;;;;;;;5.30;2.60;;;;;;;;;;5109987;28;20047;-73
2023/08/12 07:14:28;;;;;;;8.95;2.83;;;;;;;;;;5109965;28;20054;-73
2023/08/12 07:16:54;;;;;;;5.35;2.70;;;;;;;;;;5110075;28;20501;-73
2023/08/12 07:19:22;;;;;;;6.75;3.17;;;;;;;;;;5111841;28;20048;-73
2023/08/12 07:21:49;;;;;;;6.20;2.70;;;;;;;;;;5114113;28;20039;-73
2023/08/12 07:24:15;;;;;;;6.63;3.00;;;;;;;;;;5113814;28;20407;-73
2023/08/12 07:26:42;;;;;;;12.02;3.40;;;;;;;;;;5112716;28;20253;-73
2023/08/12 07:29:09;;;;;;;7.32;3.35;;;;;;;;;;5114040;28;20522;-72
2023/08/12 07:31:35;;;;;;;7.72;3.28;;;;;;;;;;5113993;28;20047;-73
2023/08/12 07:34:03;;;;;;;4.55;2.83;;;;;;;;;;5113927;28;20054;-73
2023/08/12 07:36:30;;;;;;;8.23;3.33;;;;;;;;;;5113726;28;20051;-73
2023/08/12 07:38:56;;;;;;;4.68;3.03;;;;;;;;;;5113872;28;20040;-73
2023/08/12 07:41:27;;;;;;;6.28;3.10;;;;;;;;;;5113457;28;20630;-72
2023/08/12 07:43:53;;;;;;;;;;;;;;;;;;5114496;28;20044;-73
2023/08/12 07:46:23;;;;;;;7.03;3.03;;;;;;;;;;5113572;28;19919;-73
2023/08/12 07:48:50;;;;;;;4.50;2.65;;;;;;;;;;5113627;28;20047;-73
2023/08/12 07:51:16;;;;;;;5.80;3.42;;;;;;;;;;5113580;28;20056;-73
2023/08/12 07:53:43;;;;;;;7.82;4.10;;;;;;;;;;5113442;28;20145;-73
2023/08/12 07:56:10;;;;;;;9.85;3.38;;;;;;;;;;5113259;28;20411;-73
2023/08/12 07:58:36;;;;;;;8.40;3.53;;;;;;;;;;5113685;28;20039;-73
2023/08/12 08:01:04;;;;;;;10.15;3.67;;;;;;;;;;5113477;28;20077;-73
2023/08/12 08:03:31;;;;;;;8.80;3.55;;;;;;;;;;5113581;28;20043;-73
2023/08/12 08:06:01;;;;;;;7.22;2.83;;;;;;;;;;5112953;28;20407;-73
2023/08/12 08:08:27;;;;;;;5.15;2.78;;;;;;;;;;5113314;28;20043;-73
2023/08/12 08:10:54;;;;;;;8.00;3.53;;;;;;;;;;5113017;28;20051;-73
2023/08/12 08:13:20;;;;;;;6.07;3.40;;;;;;;;;;5113399;28;20054;-73
2023/08/12 08:15:47;;;;;;;6.63;3.25;;;;;;;;;;5112884;28;20067;-73
2023/08/12 08:18:14;;;;;;;7.43;3.50;;;;;;;;;;5112949;28;20044;-73
2023/08/12 08:20:44;;;;;;;8.93;3.40;;;;;;;;;;5112846;28;20559;-73
2023/08/12 08:23:12;;;;;;;5.30;3.10;;;;;;;;;;5112950;28;20040;-73
2023/08/12 08:25:38;;;;;;;9.25;3.63;;;;;;;;;;5112662;28;20047;-73
2023/08/12 08:28:05;;;;;;;5.45;3.25;;;;;;;;;;5112955;28;20047;-73
2023/08/12 08:30:32;;;;;;;7.45;3.60;;;;;;;;;;5112815;28;20108;-73
2023/08/12 08:32:58;;;;;;;10.10;3.20;;;;;;;;;;5112744;28;20059;-73
2023/08/12 08:35:25;;;;;;;4.95;3.20;;;;;;;;;;5112444;28;20059;-73
2023/08/12 08:37:53;;;;;;;6.97;3.38;;;;;;;;;;5112739;28;20075;-73
2023/08/12 08:40:20;;;;;;;5.60;3.40;;;;;;;;;;5112627;28;20047;-73
2023/08/12 08:42:53;;;;;;;7.45;3.22;;;;;;;;;;5112688;28;20631;-73
2023/08/12 08:45:22;;;;;;;5.72;3.20;;;;;;;;;;5094587;28;20135;-73
2023/08/12 08:47:51;;;;;;;7.88;3.45;;;;;;;;;;5112403;28;20051;-73
2023/08/12 08:50:18;;;;;;;11.52;3.65;;;;;;;;;;5112721;28;20043;-73
2023/08/12 08:52:46;;;;;;;6.75;3.45;;;;;;;;;;5112028;28;20101;-73
2023/08/12 08:55:14;;;;;;;9.43;3.70;;;;;;;;;;5112275;28;20066;-73
2023/08/12 08:57:44;;;;;;;7.30;3.30;;;;;;;;;;5112235;28;20050;-73
2023/08/12 09:00:15;;;;;;;6.43;3.22;;;;;;;;;;5112508;28;20071;-73
2023/08/12 09:02:50;;;;;;;10.60;3.60;;;;;;;;;;5112203;28;20502;-73
2023/08/12 09:05:20;;;;;;;6.05;3.10;;;;;;;;;;5112032;28;20407;-73
2023/08/12 09:07:48;;;;;;;6.33;3.37;;;;;;;;;;5112179;28;20126;-73
2023/08/12 09:10:20;;;;;;;9.02;3.30;;;;;;;;;;5111946;28;20760;-73
2023/08/12 09:12:47;;;;;;;7.18;3.30;;;;;;;;;;5111685;28;20377;-73
2023/08/12 09:15:16;;;;;;;4.68;3.03;;;;;;;;;;5112095;28;20491;-73
2023/08/12 09:17:43;;;;;;;7.28;3.38;;;;;;;;;;5112095;28;20061;-73
2023/08/12 09:20:13;;;;;;;5.78;3.05;;;;;;;;;;5112096;28;20053;-73
2023/08/12 09:22:43;;;;;;;6.43;3.22;;;;;;;;;;5093693;28;20129;-73
2023/08/12 09:25:10;;;;;;;;;;;;;;;;;;5112368;28;20118;-73
2023/08/12 09:27:40;;;;;;;6.57;3.45;;;;;;;;;;5111271;28;19923;-73
2023/08/12 09:30:11;;;;;;;5.15;2.92;;;;;;;;;;5111764;28;20054;-73
2023/08/12 09:32:40;;;;;;;7.68;3.20;;;;;;;;;;5111463;28;20075;-73
2023/08/12 09:35:16;;;;;;;8.85;2.95;;;;;;;;;;5112222;28;20062;-73
2023/08/12 09:37:42;;;;;;;7.82;2.80;;;;;;;;;;5111103;28;20380;-73
2023/08/12 09:40:09;;;;;;;6.35;3.45;;;;;;;;;;5111805;28;20298;-73
2023/08/12 09:42:44;;;;;;;7.20;3.40;;;;;;;;;;5110708;28;20618;-73
2023/08/12 09:45:11;;;;;;;6.78;3.50;;;;;;;;;;5111280;28;20514;-73
2023/08/12 09:47:41;;;;;;;7.53;3.40;;;;;;;;;;5110844;28;20044;-73
2023/08/12 09:50:08;;;;;;;;;;;;;;;;;;5112219;28;20043;-73
2023/08/12 09:52:35;;;;;;;4.50;2.88;;;;;;;;;;5111259;28;19920;-73
2023/08/12 09:55:05;;;;;;;6.38;3.00;;;;;;;;;;5111573;28;20054;-72
2023/08/12 09:57:34;;;;;;;6.83;3.40;;;;;;;;;;5111171;28;20043;-73
2023/08/12 10:00:03;;;;;;;7.13;3.40;;;;;;;;;;5111172;28;20054;-73
2023/08/12 10:02:31;;;;;;;8.00;3.40;;;;;;;;;;5110726;28;20048;-73
2023/08/12 10:04:59;;;;;;;5.25;3.47;;;;;;;;;;5110892;28;20526;-73
2023/08/12 10:07:25;;;;;;;5.95;3.45;;;;;;;;;;5110334;28;20040;-73
2023/08/12 10:09:53;;;;;;;6.22;3.15;;;;;;;;;;5111062;28;20047;-73
2023/08/12 10:12:21;;;;;;;9.23;3.20;;;;;;;;;;5093172;28;20048;-73
2023/08/12 10:14:48;;;;;;;6.90;3.13;;;;;;;;;;5110877;28;20491;-73
2023/08/12 10:17:15;;;;;;;6.90;3.33;;;;;;;;;;5109510;28;20044;-73
2023/08/12 10:20:04;;;;;;;7.72;3.35;;;;;;;;;;5110942;28;20481;-73
2023/08/12 10:22:31;;;;;;;9.68;3.10;;;;;;;;;;5110320;28;20509;-73
2023/08/12 10:24:59;;;;;;;7.15;2.85;;;;;;;;;;5110644;28;20051;-73
2023/08/12 10:27:26;;;;;;;5.65;3.10;;;;;;;;;;5110204;28;20040;-73
2023/08/12 10:29:56;;;;;;;6.22;2.88;;;;;;;;;;5110816;28;20293;-73
2023/08/12 10:32:23;;;;;;;6.70;3.30;;;;;;;;;;5110612;28;20051;-73
2023/08/12 10:34:57;;;;;;;9.98;3.17;;;;;;;;;;5092398;28;20086;-73
2023/08/12 10:37:25;;;;;;;6.18;2.92;;;;;;;;;;5110245;28;20043;-73
2023/08/12 10:39:53;;;;;;;6.93;3.08;;;;;;;;;;5110483;28;20047;-73
2023/08/12 10:42:45;;;;;;;6.07;2.90;;;;;;;;;;5110485;28;20044;-73
2023/08/12 10:45:17;;;;;;;5.72;2.90;;;;;;;;;;5110619;28;20051;-74
2023/08/12 10:48:09;;;;;;;6.25;3.10;;;;;;;;;;5110356;28;20047;-73
2023/08/12 10:50:36;;;;;;;6.63;3.05;;;;;;;;;;5110626;28;20140;-73
2023/08/12 10:53:21;;;;;;;5.53;2.78;;;;;;;;;;5109555;28;20308;-73
2023/08/12 10:55:55;;;;;;;5.68;2.72;;;;;;;;;;5108958;28;20524;-73
2023/08/12 10:58:29;;;;;;;6.47;2.88;;;;;;;;;;5110079;28;20112;-73
2023/08/12 11:00:57;;;;;;;3.92;2.50;;;;;;;;;;5110100;28;20046;-73
2023/08/12 11:03:24;;;;;;;6.32;3.05;;;;;;;;;;5110264;28;20078;-73
2023/08/12 11:05:55;;;;;;;5.43;2.72;;;;;;;;;;5110475;28;20047;-73
2023/08/12 11:08:26;;;;;;;7.40;2.75;;;;;;;;;;5110127;28;20040;-73
2023/08/12 11:10:56;;;;;;;6.03;2.97;;;;;;;;;;5110249;28;20039;-73
2023/08/12 11:13:27;;;;;;;5.47;2.95;;;;;;;;;;5091978;28;20043;-73
2023/08/12 11:16:05;;;;;;;;;;;;;;;;;;5110555;28;20137;-73
2023/08/12 11:18:32;;;;;;;5.97;2.53;;;;;;;;;;5109622;28;19965;-73
2023/08/12 11:21:00;;;;;;;5.07;2.67;;;;;;;;;;5109909;28;20054;-73
2023/08/12 11:23:28;;;;;;;8.43;3.25;;;;;;;;;;5110138;28;20048;-73
2023/08/12 11:25:54;;;;;;;6.75;3.05;;;;;;;;;;5110366;28;20039;-74
2023/08/12 11:28:21;;;;;;;5.03;2.95;;;;;;;;;;5109925;28;20043;-73
2023/08/12 11:30:48;;;;;;;5.10;2.70;;;;;;;;;;5110198;28;20047;-73
2023/08/12 11:33:18;;;;;;;5.32;2.75;;;;;;;;;;5109438;28;20055;-74
2023/08/12 11:35:48;;;;;;;5.50;2.65;;;;;;;;;;5109847;28;20129;-74
2023/08/12 11:38:18;;;;;;;5.55;2.05;;;;;;;;;;5109449;28;20134;-73
2023/08/12 11:40:47;;;;;;;9.85;3.05;;;;;;;;;;5110233;28;20059;-73
2023/08/12 11:43:14;;;;;;;8.73;2.55;;;;;;;;;;5109683;28;20499;-73
2023/08/12 11:45:43;;;;;;;4.88;2.60;;;;;;;;;;5109853;28;20509;-73
2023/08/12 11:48:10;;;;;;;6.40;2.50;;;;;;;;;;5109265;28;20560;-73
2023/08/12 11:50:37;;;;;;;5.60;2.63;;;;;;;;;;5109620;28;20548;-73
2023/08/12 11:53:04;;;;;;;3.58;2.60;;;;;;;;;;5109163;28;20580;-73
2023/08/12 11:55:31;;;;;;;8.18;2.70;;;;;;;;;;5109561;28;20515;-73
2023/08/12 11:57:58;;;;;;;7.30;2.47;;;;;;;;;;5109542;28;20043;-73
2023/08/12 12:00:25;;;;;;;4.32;2.28;;;;;;;;;;5110061;28;20044;-73
2023/08/12 12:02:54;;;;;;;4.35;2.50;;;;;;;;;;5109601;28;20282;-73
2023/08/12 12:05:33;;;;;;;6.93;2.35;;;;;;;;;;5111121;28;20415;-73
2023/08/12 12:08:00;;;;;;;5.28;2.45;;;;;;;;;;5113005;28;20058;-73
2023/08/12 12:10:29;;;;;;;6.65;2.42;;;;;;;;;;5113293;28;20047;-74
2023/08/12 12:13:02;;;;;;;4.45;2.13;;;;;;;;;;5113297;28;20159;-74
2023/08/12 12:15:29;;;;;;;7.15;2.60;;;;;;;;;;5113525;28;20060;-73
2023/08/12 12:17:55;;;;;;;5.18;2.35;;;;;;;;;;5113046;28;20043;-73
2023/08/12 12:20:22;;;;;;;3.33;2.20;;;;;;;;;;5113216;28;20089;-73
2023/08/12 12:22:49;;;;;;;3.45;2.15;;;;;;;;;;5113113;28;20062;-73
2023/08/12 12:25:20;;;;;;;4.70;2.40;;;;;;;;;;5112825;28;20510;-74
2023/08/12 12:27:46;;;;;;;7.05;2.30;;;;;;;;;;5112575;28;20442;-73
2023/08/12 12:30:15;;;;;;;8.07;3.00;;;;;;;;;;5112894;28;20461;-73
2023/08/12 12:32:42;;;;;;;4.47;2.67;;;;;;;;;;5112891;28;20052;-73
2023/08/12 12:35:09;;;;;;;6.40;2.70;;;;;;;;;;5113095;28;20052;-74
2023/08/12 12:37:36;;;;;;;6.47;2.50;;;;;;;;;;5112716;28;20051;-74
2023/08/12 12:40:05;;;;;;;5.60;2.20;;;;;;;;;;5112932;28;20078;-74
2023/08/12 12:42:32;;;;;;;5.75;2.50;;;;;;;;;;5112703;28;20052;-74
2023/08/12 12:44:59;;;;;;;4.72;2.30;;;;;;;;;;5112722;28;20070;-74
2023/08/12 12:47:25;;;;;;;4.82;2.58;;;;;;;;;;5112386;28;20078;-74
2023/08/12 12:49:52;;;;;;;5.45;2.38;;;;;;;;;;5112624;28;20066;-74
2023/08/12 12:52:21;;;;;;;4.43;2.42;;;;;;;;;;5112582;28;20495;-74
2023/08/12 12:54:47;;;;;;;4.82;2.17;;;;;;;;;;5112337;28;20050;-74
2023/08/12 12:57:16;;;;;;;4.68;1.85;;;;;;;;;;5112296;28;20058;-74
2023/08/12 12:59:42;;;;;;;5.75;2.22;;;;;;;;;;5112302;28;20054;-74
2023/08/12 13:02:09;;;;;;;5.20;1.98;;;;;;;;;;5112550;28;20134;-74
2023/08/12 13:04:36;;;;;;;3.97;2.10;;;;;;;;;;5111964;28;20047;-74
2023/08/12 13:07:03;;;;;;;6.03;2.53;;;;;;;;;;5112146;28;20491;-74
2023/08/12 13:09:30;;;;;;;6.60;2.30;;;;;;;;;;5112001;28;20059;-74
2023/08/12 13:11:58;;;;;;;3.92;2.20;;;;;;;;;;5112357;28;20247;-74
2023/08/12 13:14:25;;;;;;;4.55;2.10;;;;;;;;;;5112090;28;20055;-74
2023/08/12 13:16:51;;;;;;;4.38;2.25;;;;;;;;;;5111255;28;20055;-74
2023/08/12 13:19:18;;;;;;;4.47;2.50;;;;;;;;;;5111859;28;20047;-74
2023/08/12 13:21:44;;;;;;;7.95;2.25;;;;;;;;;;5112155;28;20050;-74
2023/08/12 13:24:11;;;;;;;6.07;2.30;;;;;;;;;;5111633;28;20058;-74
2023/08/12 13:26:38;;;;;;;5.68;2.35;;;;;;;;;;5112105;28;20048;-74
2023/08/12 13:29:05;;;;;;;5.80;2.72;;;;;;;;;;5111487;28;20047;-74
2023/08/12 13:31:31;;;;;;;6.57;2.50;;;;;;;;;;5111807;28;20450;-74
2023/08/12 13:33:58;;;;;;;5.28;2.38;;;;;;;;;;5111552;28;20528;-74
2023/08/12 13:36:25;;;;;;;4.20;2.20;;;;;;;;;;5111677;28;20137;-74
2023/08/12 13:38:52;;;;;;;5.45;2.38;;;;;;;;;;5110961;28;20517;-75
2023/08/12 13:41:18;;;;;;;5.93;2.20;;;;;;;;;;5111556;28;20050;-74
2023/08/12 13:43:45;;;;;;;5.90;2.60;;;;;;;;;;5111353;28;20663;-74
2023/08/12 13:46:12;;;;;;;4.32;2.15;;;;;;;;;;5111521;28;20051;-74
2023/08/12 13:48:39;;;;;;;5.95;1.77;;;;;;;;;;5111143;28;20503;-74
2023/08/12 13:51:07;;;;;;;6.80;2.35;;;;;;;;;;5111710;28;20047;-74
2023/08/12 13:53:33;;;;;;;6.15;2.58;;;;;;;;;;5111420;28;20043;-74
2023/08/12 13:56:00;;;;;;;5.50;2.20;;;;;;;;;;5111097;28;20063;-74
2023/08/12 13:58:26;;;;;;;3.92;1.88;;;;;;;;;;5111162;28;20043;-74
2023/08/12 14:00:53;;;;;;;6.93;2.25;;;;;;;;;;5111301;28;20047;-74
2023/08/12 14:03:20;;;;;;;5.30;2.30;;;;;;;;;;5111471;28;20044;-74
2023/08/12 14:05:46;;;;;;;8.85;2.08;;;;;;;;;;5110849;28;20050;-74
2023/08/12 14:08:13;;;;;;;3.47;1.90;;;;;;;;;;5110816;28;20048;-74
2023/08/12 14:10:40;;;;;;;6.30;2.63;;;;;;;;;;5093032;28;20047;-74
2023/08/12 14:13:07;;;;;;;3.90;2.00;;;;;;;;;;5111135;28;20048;-74
2023/08/12 14:15:34;;;;;;;3.88;2.08;;;;;;;;;;5110396;28;20108;-73
2023/08/12 14:18:01;;;;;;;3.97;2.08;;;;;;;;;;5110961;28;20051;-74
2023/08/12 14:20:28;;;;;;;3.75;2.10;;;;;;;;;;5110896;28;20059;-74
2023/08/12 14:22:55;;;;;;;6.45;2.40;;;;;;;;;;5110702;28;20044;-74
2023/08/12 14:25:21;;;;;;;3.72;2.00;;;;;;;;;;5110866;28;20085;-74
2023/08/12 14:27:48;;;;;;;3.55;2.20;;;;;;;;;;5109290;28;20047;-74
2023/08/12 14:30:19;;;;;;;3.88;2.20;;;;;;;;;;5110562;28;20128;-74
2023/08/12 14:32:46;;;;;;;4.53;1.95;;;;;;;;;;5110226;28;20063;-74
2023/08/12 14:35:16;;;;;;;6.13;2.47;;;;;;;;;;5110221;28;20051;-75
2023/08/12 14:37:43;;;;;;;7.13;2.72;;;;;;;;;;5110472;28;20048;-74
2023/08/12 14:40:10;;;;;;;3.90;2.28;;;;;;;;;;5110081;28;20052;-74
2023/08/12 14:42:37;;;;;;;5.28;2.50;;;;;;;;;;5110725;28;20047;-74
2023/08/12 14:45:04;;;;;;;4.43;2.10;;;;;;;;;;5110237;28;20039;-74
2023/08/12 14:47:31;;;;;;;6.15;2.45;;;;;;;;;;5110563;28;20048;-74